createdAt,value
2023-03-06T00:00:00.674Z,100570
2023-03-06T00:05:00.610Z,100550
2023-03-06T00:10:00.691Z,100550
2023-03-06T00:15:00.730Z,100550
2023-03-06T00:20:00.750Z,100540
2023-03-06T00:25:00.709Z,100530
2023-03-06T00:30:00.869Z,100520
2023-03-06T00:35:00.731Z,100520
2023-03-06T00:40:00.783Z,100520
2023-03-06T00:45:00.571Z,100500
2023-03-06T00:50:00.732Z,100500
2023-03-06T00:55:00.732Z,100510
2023-03-06T01:00:00.647Z,100520
2023-03-06T01:05:01.010Z,100510
2023-03-06T01:10:00.715Z,100510
2023-03-06T01:15:00.684Z,100480
2023-03-06T01:20:00.702Z,100490
2023-03-06T01:25:00.616Z,100470
2023-03-06T01:30:00.676Z,100460
2023-03-06T01:35:00.700Z,100480
2023-03-06T01:40:00.693Z,100460
2023-03-06T01:45:00.694Z,100460
2023-03-06T01:50:00.663Z,100460
2023-03-06T01:55:00.682Z,100470
2023-03-06T02:00:00.575Z,100450
2023-03-06T02:05:00.663Z,100470
2023-03-06T02:10:00.642Z,100440
2023-03-06T02:15:01.017Z,100450
2023-03-06T02:20:00.669Z,100430
2023-03-06T02:25:00.629Z,100440
2023-03-06T02:30:00.625Z,100430
2023-03-06T02:35:00.761Z,100420
2023-03-06T02:40:00.654Z,100390
2023-03-06T02:45:00.649Z,100430
2023-03-06T02:50:00.671Z,100400
2023-03-06T02:55:00.694Z,100400
2023-03-06T03:00:00.761Z,100400
2023-03-06T03:05:00.667Z,100380
2023-03-06T03:10:00.685Z,100390
2023-03-06T03:15:00.650Z,100370
2023-03-06T03:20:00.736Z,100360
2023-03-06T03:25:00.648Z,100360
2023-03-06T03:30:00.759Z,100360
2023-03-06T03:35:00.622Z,100350
2023-03-06T03:40:00.664Z,100340
2023-03-06T03:45:00.668Z,100330
2023-03-06T03:50:00.617Z,100330
2023-03-06T03:55:00.635Z,100360
2023-03-06T04:00:00.680Z,100330
2023-03-06T04:05:00.703Z,100300
2023-03-06T04:10:00.672Z,100320
2023-03-06T04:15:00.831Z,100300
2023-03-06T04:20:00.548Z,100290
2023-03-06T04:25:00.562Z,100320
2023-03-06T04:30:00.690Z,100300
2023-03-06T04:35:00.619Z,100310
2023-03-06T04:40:00.692Z,100300
2023-03-06T04:45:00.666Z,100310
2023-03-06T04:50:00.628Z,100280
2023-03-06T04:55:00.690Z,100290
2023-03-06T05:00:01.090Z,100310
2023-03-06T05:05:00.658Z,100260
2023-03-06T05:10:00.549Z,100270
2023-03-06T05:15:00.602Z,100260
2023-03-06T05:20:00.898Z,100270
2023-03-06T05:25:00.606Z,100240
2023-03-06T05:30:00.748Z,100240
2023-03-06T05:35:00.632Z,100250
2023-03-06T05:40:00.677Z,100220
2023-03-06T05:45:00.655Z,100230
2023-03-06T05:50:00.645Z,100230
2023-03-06T05:55:01.174Z,100200
2023-03-06T06:00:00.744Z,100220
2023-03-06T06:05:00.747Z,100220
2023-03-06T06:10:03.139Z,100220
2023-03-06T06:15:00.657Z,100220
2023-03-06T06:20:00.653Z,100230
2023-03-06T06:25:00.737Z,100210
2023-03-06T06:30:00.586Z,100230
2023-03-06T06:35:00.678Z,100220
2023-03-06T06:40:00.651Z,100240
2023-03-06T06:45:00.718Z,100230
2023-03-06T06:50:00.740Z,100220
2023-03-06T06:55:00.548Z,100230
2023-03-06T07:00:00.710Z,100250
2023-03-06T07:05:04.497Z,100240
2023-03-06T07:10:00.612Z,100230
2023-03-06T07:15:00.766Z,100260
2023-03-06T07:20:00.595Z,100220
2023-03-06T07:25:00.827Z,100250
2023-03-06T07:30:00.849Z,100260
2023-03-06T07:35:18.731Z,100260
2023-03-06T07:40:01.212Z,100270
2023-03-06T07:45:00.966Z,100260
2023-03-06T07:50:00.612Z,100270
2023-03-06T07:55:00.679Z,100290
2023-03-06T08:00:00.720Z,100290
2023-03-06T08:05:01.330Z,100300
2023-03-06T08:10:00.855Z,100310
2023-03-06T08:15:00.952Z,100310
2023-03-06T08:20:00.819Z,100270
2023-03-06T08:25:00.758Z,100310
2023-03-06T08:30:00.310Z,100310
2023-03-06T08:35:00.302Z,100300
2023-03-06T08:40:00.286Z,100300
2023-03-06T08:45:00.310Z,100320
2023-03-06T08:50:00.901Z,100310
2023-03-06T08:55:00.293Z,100310
2023-03-06T09:00:00.305Z,100290
2023-03-06T09:05:00.289Z,100300
2023-03-06T09:10:00.312Z,100310
2023-03-06T09:15:00.291Z,100280
2023-03-06T09:20:00.305Z,100300
2023-03-06T09:25:00.300Z,100300
2023-03-06T09:30:00.294Z,100300
2023-03-06T09:35:00.300Z,100320
2023-03-06T09:40:00.339Z,100290
2023-03-06T09:45:00.326Z,100310
2023-03-06T09:50:00.298Z,100290
2023-03-06T09:55:00.289Z,100290
2023-03-06T10:00:03.483Z,100290
2023-03-06T10:05:00.336Z,100300
2023-03-06T10:10:00.291Z,100290
2023-03-06T10:15:00.311Z,100280
2023-03-06T10:20:00.309Z,100290
2023-03-06T10:25:00.291Z,100250
2023-03-06T10:30:03.594Z,100290
2023-03-06T10:35:00.306Z,100300
2023-03-06T10:40:00.295Z,100290
2023-03-06T10:45:00.285Z,100290
2023-03-06T10:50:00.300Z,100280
2023-03-06T10:55:00.290Z,100290
2023-03-06T11:00:00.295Z,100290
2023-03-06T11:05:00.311Z,100260
2023-03-06T11:10:00.313Z,100260
2023-03-06T11:15:00.288Z,100280
2023-03-06T11:20:00.291Z,100270
2023-03-06T11:25:00.290Z,100270
2023-03-06T11:30:00.296Z,100260
2023-03-06T11:35:00.294Z,100260
2023-03-06T11:40:00.296Z,100260
2023-03-06T11:45:01.337Z,100240
2023-03-06T11:50:00.289Z,100240
2023-03-06T11:55:00.302Z,100240
2023-03-06T12:00:00.407Z,100230
2023-03-06T12:05:00.528Z,100210
2023-03-06T12:10:00.295Z,100220
2023-03-06T12:15:00.578Z,100210
2023-03-06T12:20:00.291Z,100200
2023-03-06T12:25:00.391Z,100210
2023-03-06T12:30:00.307Z,100190
2023-03-06T12:35:00.440Z,100190
2023-03-06T12:40:00.300Z,100180
2023-03-06T12:45:00.331Z,100180
2023-03-06T12:50:00.300Z,100180
2023-03-06T12:55:00.337Z,100170
2023-03-06T13:00:00.338Z,100180
2023-03-06T13:05:01.641Z,100140
2023-03-06T13:10:00.289Z,100150
2023-03-06T13:15:00.338Z,100160
2023-03-06T13:20:00.310Z,100150
2023-03-06T13:25:06.829Z,100120
2023-03-06T13:30:00.302Z,100120
2023-03-06T13:35:00.297Z,100120
2023-03-06T13:40:00.296Z,100110
2023-03-06T13:45:00.293Z,100110
2023-03-06T13:50:00.297Z,100100
2023-03-06T13:55:00.357Z,100100
2023-03-06T14:00:08.678Z,100090
2023-03-06T14:05:00.289Z,100090
2023-03-06T14:10:00.290Z,100060
2023-03-06T14:15:00.292Z,100080
2023-03-06T14:20:00.302Z,100080
2023-03-06T14:25:00.285Z,100050
2023-03-06T14:30:00.284Z,100070
2023-03-06T14:35:00.303Z,100040
2023-03-06T14:40:00.275Z,100030
2023-03-06T14:45:00.293Z,100040
2023-03-06T14:50:00.285Z,100020
2023-03-06T14:55:00.310Z,100020
2023-03-06T15:00:00.305Z,100000
2023-03-06T15:05:00.304Z,100010
2023-03-06T15:10:00.303Z,100000
2023-03-06T15:15:00.301Z,100010
2023-03-06T15:20:00.297Z,100000
2023-03-06T15:25:00.291Z,100030
2023-03-06T15:30:00.284Z,100020
2023-03-06T15:35:00.294Z,99990
2023-03-06T15:40:00.285Z,100010
2023-03-06T15:45:00.296Z,100000
2023-03-06T15:50:00.299Z,100010
2023-03-06T15:55:00.301Z,100020
2023-03-06T16:00:00.292Z,99990
2023-03-06T16:05:00.301Z,99970
2023-03-06T16:10:00.298Z,99960
2023-03-06T16:15:00.302Z,99950
2023-03-06T16:20:00.293Z,99960
2023-03-06T16:25:00.315Z,99960
2023-03-06T16:30:00.299Z,99950
2023-03-06T16:35:00.281Z,99940
2023-03-06T16:40:00.284Z,99930
2023-03-06T16:45:00.302Z,99920
2023-03-06T16:50:00.370Z,99920
2023-03-06T16:55:00.290Z,99890
2023-03-06T17:00:00.317Z,99890
2023-03-06T17:05:00.290Z,99880
2023-03-06T17:10:00.286Z,99890
2023-03-06T17:15:00.321Z,99900
2023-03-06T17:20:00.282Z,99880
2023-03-06T17:25:00.294Z,99890
2023-03-06T17:30:00.427Z,99870
2023-03-06T17:35:00.303Z,99880
2023-03-06T17:40:00.386Z,99900
2023-03-06T17:45:00.303Z,99860
2023-03-06T17:50:00.280Z,99860
2023-03-06T17:55:00.282Z,99860
2023-03-06T18:00:00.344Z,99860
2023-03-06T18:05:00.346Z,99850
2023-03-06T18:10:00.289Z,99860
2023-03-06T18:15:00.299Z,99850
2023-03-06T18:20:00.292Z,99840
2023-03-06T18:25:00.286Z,99820
2023-03-06T18:30:00.284Z,99810
2023-03-06T18:35:00.296Z,99850
2023-03-06T18:40:00.286Z,99800
2023-03-06T18:45:00.294Z,99800
2023-03-06T18:50:00.298Z,99800
2023-03-06T18:55:00.301Z,99770
2023-03-06T19:00:00.301Z,99780
2023-03-06T19:05:00.305Z,99770
2023-03-06T19:10:00.325Z,99770
2023-03-06T19:15:00.297Z,99770
2023-03-06T19:20:00.302Z,99770
2023-03-06T19:25:02.731Z,99740
2023-03-06T19:30:00.299Z,99740
2023-03-06T19:35:00.301Z,99720
2023-03-06T19:40:00.302Z,99730
2023-03-06T19:45:00.348Z,99710
2023-03-06T19:50:00.297Z,99710
2023-03-06T19:55:00.312Z,99700
2023-03-06T20:00:00.293Z,99700
2023-03-06T20:05:00.307Z,99680
2023-03-06T20:10:00.322Z,99680
2023-03-06T20:15:00.347Z,99680
2023-03-06T20:20:00.287Z,99680
2023-03-06T20:25:00.323Z,99660
2023-03-06T20:30:00.278Z,99650
2023-03-06T20:35:00.285Z,99650
2023-03-06T20:40:00.293Z,99640
2023-03-06T20:45:00.289Z,99620
2023-03-06T20:50:00.296Z,99610
2023-03-06T20:55:00.294Z,99610
2023-03-06T21:00:00.289Z,99620
2023-03-06T21:05:00.374Z,99610
2023-03-06T21:10:00.283Z,99600
2023-03-06T21:15:00.300Z,99590
2023-03-06T21:20:00.283Z,99590
2023-03-06T21:25:00.312Z,99550
2023-03-06T21:30:00.291Z,99550
2023-03-06T21:35:00.297Z,99540
2023-03-06T21:40:00.295Z,99540
2023-03-06T21:45:00.334Z,99500
2023-03-06T21:50:00.299Z,99510
2023-03-06T21:55:00.320Z,99500
2023-03-06T22:00:00.304Z,99490
2023-03-06T22:05:00.308Z,99490
2023-03-06T22:10:00.286Z,99480
2023-03-06T22:15:00.293Z,99470
2023-03-06T22:20:00.297Z,99480
2023-03-06T22:25:00.303Z,99480
2023-03-06T22:30:00.294Z,99480
2023-03-06T22:35:00.293Z,99480
2023-03-06T22:40:00.288Z,99460
2023-03-06T22:45:00.291Z,99450
2023-03-06T22:50:00.288Z,99480
2023-03-06T22:55:00.298Z,99470
2023-03-06T23:00:00.290Z,99460
2023-03-06T23:05:00.292Z,99470
2023-03-06T23:10:00.323Z,99440
2023-03-06T23:15:00.404Z,99450
2023-03-06T23:20:00.313Z,99450
2023-03-06T23:25:00.314Z,99450
2023-03-06T23:30:00.295Z,99440
2023-03-06T23:35:00.293Z,99450
2023-03-06T23:40:00.294Z,99440
2023-03-06T23:45:00.293Z,99440
2023-03-06T23:50:00.320Z,99440
2023-03-06T23:55:00.300Z,99440
